Página principal
METAR-TAF:

METAR-TAF

Aeroportos :

Lanzhou, China

latitude: 36-02N, longitude: 103-52E, altura: 1518 m

Observação actual do tempo

O boletim foi feito há 22 minutos, às 14:00 UTC
Vento 4 kt de nor-nordeste
Temperatura 14°C
Humidade 94%
Pressão 1017 hPa
Visibilidade 10 km ou mais
Poucas nuvensa uma altura de 2300 ft
Encobertoa uma altura de 4600 ft
chuva fraca

METAR: ZLLL 241400Z 02002MPS 9999 -RA FEW023 OVC046 14/13 Q1017 RERA NOSIG

Hora: 22:22 (14:22 UTC)

Previsão

O boletim foi feito há 1 hora e 49 minutos, às 12:33 UTC
Previsão válida de 24 às 12 UTC a 25 às 12 UTC
Vento 6 kt de norte
Visibilidade: 8000 m
Nuvens fragmentadasa uma altura de 4000 ft
chuva fraca
Temporariamente
de 24 às 12 UTC a 24 às 18 UTC
chuva

TAF: ZLLL 241233Z 2412/2512 36003MPS 8000 -RA BKN040 TX19/2508Z TN11/2422Z TEMPO 2412/2418 RA

Observações e previsões do tempo de mais de 4000 aeroportos (mensagens METAR e TAF).

As estações disponíveis são os pontos amarelos e vermelhos sobre o mapa.

Mova o rato sobre o mapa para ver o nome da estação.

Depois clique no ponto para visualizar as observações e previsões meteorológicas.

Para alterar o mapa : clique nos botões verdes com uma cruz preta para aumentar o zoom; no botão verde com uma pitada de zoom; ou nas setas verdes para mapas adjacentes.


METAR-TAF: